sensor_id;sensor_type;location;lat;lon;timestamp;P1;P2;P0
62778;PMS7003;48821;48.796;2.396;2022-09-28T05:54:17;5.00;4.00;3.25
62778;PMS7003;48821;48.796;2.396;2022-09-28T05:55:27;5.50;5.00;4.00
62778;PMS7003;48821;48.796;2.396;2022-09-28T05:56:38;4.25;3.00;1.75
62778;PMS7003;48821;48.796;2.396;2022-09-28T05:57:48;3.25;2.00;2.00
62778;PMS7003;48821;48.796;2.396;2022-09-28T05:58:58;4.25;2.50;1.25
62778;PMS7003;48821;48.796;2.396;2022-09-28T06:00:09;3.50;2.75;1.75
62778;PMS7003;48821;48.796;2.396;2022-09-28T06:01:20;6.50;4.00;2.75
62778;PMS7003;48821;48.796;2.396;2022-09-28T06:02:30;4.00;3.00;3.00
62778;PMS7003;48821;48.796;2.396;2022-09-28T06:03:40;3.50;3.50;2.00
62778;PMS7003;48821;48.796;2.396;2022-09-28T06:04:51;4.00;4.00;3.00
62778;PMS7003;48821;48.796;2.396;2022-09-28T06:06:02;3.50;3.00;2.00
62778;PMS7003;48821;48.796;2.396;2022-09-28T06:07:13;3.00;1.25;1.25
62778;PMS7003;48821;48.796;2.396;2022-09-28T06:08:23;3.75;2.75;1.50
62778;PMS7003;48821;48.796;2.396;2022-09-28T06:09:33;4.00;4.00;3.00
62778;PMS7003;48821;48.796;2.396;2022-09-28T06:10:44;5.25;3.50;3.00
62778;PMS7003;48821;48.796;2.396;2022-09-28T06:11:54;6.50;5.25;4.25
62778;PMS7003;48821;48.796;2.396;2022-09-28T06:13:06;3.00;3.00;2.00
62778;PMS7003;48821;48.796;2.396;2022-09-28T06:14:19;2.00;2.00;2.00
62778;PMS7003;48821;48.796;2.396;2022-09-28T06:15:30;5.00;4.00;3.00
62778;PMS7003;48821;48.796;2.396;2022-09-28T06:16:42;2.75;2.75;2.00
62778;PMS7003;48821;48.796;2.396;2022-09-28T06:19:17;5.50;4.50;3.00
62778;PMS7003;48821;48.796;2.396;2022-09-28T06:20:28;6.75;6.75;5.50
62778;PMS7003;48821;48.796;2.396;2022-09-28T06:21:41;9.50;7.00;5.50
62778;PMS7003;48821;48.796;2.396;2022-09-28T06:22:52;9.75;7.75;6.00
62778;PMS7003;48821;48.796;2.396;2022-09-28T06:24:03;9.25;6.25;5.00
62778;PMS7003;48821;48.796;2.396;2022-09-28T06:25:14;2.75;2.75;2.25
62778;PMS7003;48821;48.796;2.396;2022-09-28T06:26:24;6.25;5.00;4.00
62778;PMS7003;48821;48.796;2.396;2022-09-28T06:27:34;5.00;5.00;3.50
62778;PMS7003;48821;48.796;2.396;2022-09-28T06:28:45;3.25;3.25;3.00
62778;PMS7003;48821;48.796;2.396;2022-09-28T06:29:55;4.00;4.00;3.00
62778;PMS7003;48821;48.796;2.396;2022-09-28T06:31:05;2.00;2.00;1.00
62778;PMS7003;48821;48.796;2.396;2022-09-28T06:32:16;3.00;3.00;3.00
62778;PMS7003;48821;48.796;2.396;2022-09-28T06:33:26;4.00;2.25;2.00
62778;PMS7003;48821;48.796;2.396;2022-09-28T06:34:36;2.00;2.00;2.00
62778;PMS7003;48821;48.796;2.396;2022-09-28T06:35:47;4.50;3.50;2.75
62778;PMS7003;48821;48.796;2.396;2022-09-28T06:36:57;3.75;3.75;2.75
62778;PMS7003;48821;48.796;2.396;2022-09-28T06:38:07;3.25;3.25;3.00
62778;PMS7003;48821;48.796;2.396;2022-09-28T06:39:18;5.00;4.00;3.00
62778;PMS7003;48821;48.796;2.396;2022-09-28T06:40:29;5.75;3.00;3.00
62778;PMS7003;48821;48.796;2.396;2022-09-28T06:41:39;5.75;5.25;4.00
62778;PMS7003;48821;48.796;2.396;2022-09-28T06:43:10;6.25;6.00;4.75
62778;PMS7003;48821;48.796;2.396;2022-09-28T06:44:23;10.75;4.25;3.25
62778;PMS7003;48821;48.796;2.396;2022-09-28T06:45:34;12.00;10.75;8.50
62778;PMS7003;48821;48.796;2.396;2022-09-28T06:46:46;8.25;7.00;5.25
62778;PMS7003;48821;48.796;2.396;2022-09-28T06:47:57;8.75;8.00;5.00
62778;PMS7003;48821;48.796;2.396;2022-09-28T06:49:08;9.00;6.25;4.50
62778;PMS7003;48821;48.796;2.396;2022-09-28T06:50:18;9.50;6.75;5.50
62778;PMS7003;48821;48.796;2.396;2022-09-28T06:51:29;8.00;5.00;4.25
62778;PMS7003;48821;48.796;2.396;2022-09-28T06:52:39;7.75;6.00;4.50
62778;PMS7003;48821;48.796;2.396;2022-09-28T06:53:49;6.75;6.00;4.00
62778;PMS7003;48821;48.796;2.396;2022-09-28T06:55:02;7.25;4.75;3.75
62778;PMS7003;48821;48.796;2.396;2022-09-28T06:56:13;8.00;8.00;6.50
62778;PMS7003;48821;48.796;2.396;2022-09-28T06:57:23;9.50;7.50;5.00
62778;PMS7003;48821;48.796;2.396;2022-09-28T06:58:34;3.25;3.25;2.50
62778;PMS7003;48821;48.796;2.396;2022-09-28T06:59:44;4.75;3.50;3.25
62778;PMS7003;48821;48.796;2.396;2022-09-28T07:00:55;6.50;6.25;4.00
62778;PMS7003;48821;48.796;2.396;2022-09-28T07:02:12;7.75;5.00;5.00
62778;PMS7003;48821;48.796;2.396;2022-09-28T07:03:23;7.75;5.00;4.50
62778;PMS7003;48821;48.796;2.396;2022-09-28T07:04:33;7.00;6.50;5.00
62778;PMS7003;48821;48.796;2.396;2022-09-28T07:05:45;8.75;6.00;4.50
62778;PMS7003;48821;48.796;2.396;2022-09-28T07:06:58;6.75;4.00;3.50
62778;PMS7003;48821;48.796;2.396;2022-09-28T07:08:08;5.50;5.50;5.00
62778;PMS7003;48821;48.796;2.396;2022-09-28T07:09:19;7.75;6.50;5.00
62778;PMS7003;48821;48.796;2.396;2022-09-28T07:10:29;6.00;6.00;5.00
62778;PMS7003;48821;48.796;2.396;2022-09-28T07:11:40;7.75;5.50;4.00
62778;PMS7003;48821;48.796;2.396;2022-09-28T07:12:53;5.00;5.00;4.00
62778;PMS7003;48821;48.796;2.396;2022-09-28T07:14:05;6.25;4.25;3.00
62778;PMS7003;48821;48.796;2.396;2022-09-28T07:15:16;2.00;2.00;2.00
62778;PMS7003;48821;48.796;2.396;2022-09-28T07:16:27;4.00;3.75;2.50
62778;PMS7003;48821;48.796;2.396;2022-09-28T07:17:37;2.00;2.00;2.00
62778;PMS7003;48821;48.796;2.396;2022-09-28T07:18:47;1.75;1.50;1.00
62778;PMS7003;48821;48.796;2.396;2022-09-28T07:19:58;2.00;1.25;1.00
62778;PMS7003;48821;48.796;2.396;2022-09-28T07:21:08;4.50;3.00;2.00
62778;PMS7003;48821;48.796;2.396;2022-09-28T07:22:19;3.25;1.25;1.00
62778;PMS7003;48821;48.796;2.396;2022-09-28T07:23:29;1.50;1.00;0.00
62778;PMS7003;48821;48.796;2.396;2022-09-28T07:24:39;1.00;1.00;0.00
62778;PMS7003;48821;48.796;2.396;2022-09-28T07:25:50;4.50;2.75;2.25
62778;PMS7003;48821;48.796;2.396;2022-09-28T07:27:01;2.00;2.00;1.00
62778;PMS7003;48821;48.796;2.396;2022-09-28T07:28:15;3.00;1.75;1.00
62778;PMS7003;48821;48.796;2.396;2022-09-28T07:29:26;3.50;2.00;1.00
62778;PMS7003;48821;48.796;2.396;2022-09-28T07:30:37;1.75;1.25;1.00
62778;PMS7003;48821;48.796;2.396;2022-09-28T07:31:47;2.00;2.00;1.00
62778;PMS7003;48821;48.796;2.396;2022-09-28T07:32:58;2.00;0.25;0.00
62778;PMS7003;48821;48.796;2.396;2022-09-28T07:34:09;2.25;2.25;2.00
62778;PMS7003;48821;48.796;2.396;2022-09-28T07:35:20;4.25;3.00;2.00
62778;PMS7003;48821;48.796;2.396;2022-09-28T07:36:31;4.00;4.00;3.50
62778;PMS7003;48821;48.796;2.396;2022-09-28T07:37:44;2.00;2.00;1.50
62778;PMS7003;48821;48.796;2.396;2022-09-28T07:38:54;4.25;2.75;2.00
62778;PMS7003;48821;48.796;2.396;2022-09-28T07:40:05;2.75;0.25;0.25
62778;PMS7003;48821;48.796;2.396;2022-09-28T07:41:36;4.50;2.00;1.25
62778;PMS7003;48821;48.796;2.396;2022-09-28T07:42:48;4.50;3.25;2.25
62778;PMS7003;48821;48.796;2.396;2022-09-28T07:44:00;4.00;2.25;1.75
62778;PMS7003;48821;48.796;2.396;2022-09-28T07:45:17;2.00;2.00;2.00
62778;PMS7003;48821;48.796;2.396;2022-09-28T07:46:30;3.00;3.00;3.00
62778;PMS7003;48821;48.796;2.396;2022-09-28T07:47:41;4.00;3.25;3.00
62778;PMS7003;48821;48.796;2.396;2022-09-28T07:48:52;6.75;5.00;3.75
62778;PMS7003;48821;48.796;2.396;2022-09-28T07:50:02;4.25;4.00;3.00
62778;PMS7003;48821;48.796;2.396;2022-09-28T07:51:13;4.00;3.50;3.00
62778;PMS7003;48821;48.796;2.396;2022-09-28T07:52:23;2.00;2.00;2.00
62778;PMS7003;48821;48.796;2.396;2022-09-28T07:53:35;3.25;3.25;2.75
62778;PMS7003;48821;48.796;2.396;2022-09-28T07:54:47;3.25;2.50;1.75
62778;PMS7003;48821;48.796;2.396;2022-09-28T07:56:01;2.25;2.25;2.00
62778;PMS7003;48821;48.796;2.396;2022-09-28T07:57:17;6.75;4.00;4.00
62778;PMS7003;48821;48.796;2.396;2022-09-28T07:58:28;4.00;4.00;3.00
62778;PMS7003;48821;48.796;2.396;2022-09-28T07:59:41;3.00;1.00;1.00
62778;PMS7003;48821;48.796;2.396;2022-09-28T08:00:52;2.50;1.25;1.25
62778;PMS7003;48821;48.796;2.396;2022-09-28T08:02:03;1.00;1.00;0.00
62778;PMS7003;48821;48.796;2.396;2022-09-28T08:03:14;2.00;2.00;1.00
62778;PMS7003;48821;48.796;2.396;2022-09-28T08:04:28;3.00;3.00;2.25
62778;PMS7003;48821;48.796;2.396;2022-09-28T08:05:39;3.25;3.25;2.75
62778;PMS7003;48821;48.796;2.396;2022-09-28T08:06:51;3.75;2.75;2.00
62778;PMS7003;48821;48.796;2.396;2022-09-28T08:08:02;5.75;3.50;3.00
62778;PMS7003;48821;48.796;2.396;2022-09-28T08:09:12;4.25;3.75;3.00
62778;PMS7003;48821;48.796;2.396;2022-09-28T08:10:22;3.50;2.25;1.50
62778;PMS7003;48821;48.796;2.396;2022-09-28T08:11:33;2.25;2.25;2.00
62778;PMS7003;48821;48.796;2.396;2022-09-28T08:12:44;1.25;1.25;1.00
62778;PMS7003;48821;48.796;2.396;2022-09-28T08:13:55;3.00;2.00;1.00
62778;PMS7003;48821;48.796;2.396;2022-09-28T08:15:07;2.00;1.00;1.00
62778;PMS7003;48821;48.796;2.396;2022-09-28T08:16:19;3.25;1.00;1.00
62778;PMS7003;48821;48.796;2.396;2022-09-28T08:17:29;2.75;1.75;1.00
62778;PMS7003;48821;48.796;2.396;2022-09-28T08:18:40;0.00;0.00;0.00
62778;PMS7003;48821;48.796;2.396;2022-09-28T08:19:50;2.00;2.00;1.00
62778;PMS7003;48821;48.796;2.396;2022-09-28T08:21:19;1.00;1.00;1.00
62778;PMS7003;48821;48.796;2.396;2022-09-28T08:22:50;2.25;1.00;1.00
62778;PMS7003;48821;48.796;2.396;2022-09-28T08:24:02;2.00;2.00;1.00
62778;PMS7003;48821;48.796;2.396;2022-09-28T08:25:12;4.00;3.00;2.00
62778;PMS7003;48821;48.796;2.396;2022-09-28T08:26:22;2.00;1.50;1.00
62778;PMS7003;48821;48.796;2.396;2022-09-28T08:27:33;1.50;1.50;1.00
62778;PMS7003;48821;48.796;2.396;2022-09-28T08:28:43;2.25;2.25;1.75
62778;PMS7003;48821;48.796;2.396;2022-09-28T08:29:55;2.00;1.00;1.00
62778;PMS7003;48821;48.796;2.396;2022-09-28T08:31:05;1.75;1.75;1.50
62778;PMS7003;48821;48.796;2.396;2022-09-28T08:32:17;2.00;2.00;1.75
62778;PMS7003;48821;48.796;2.396;2022-09-28T08:33:28;3.00;2.00;1.00
62778;PMS7003;48821;48.796;2.396;2022-09-28T08:34:39;1.50;1.00;0.75
62778;PMS7003;48821;48.796;2.396;2022-09-28T08:35:54;1.50;1.50;1.00
62778;PMS7003;48821;48.796;2.396;2022-09-28T08:37:09;1.25;1.00;0.00
62778;PMS7003;48821;48.796;2.396;2022-09-28T08:38:20;5.25;3.00;2.25
62778;PMS7003;48821;48.796;2.396;2022-09-28T08:39:30;4.75;3.00;2.75
62778;PMS7003;48821;48.796;2.396;2022-09-28T08:40:52;2.50;2.25;2.00
62778;PMS7003;48821;48.796;2.396;2022-09-28T08:42:29;5.00;2.00;1.25
62778;PMS7003;48821;48.796;2.396;2022-09-28T08:43:50;3.00;2.00;1.50
62778;PMS7003;48821;48.796;2.396;2022-09-28T08:45:11;0.50;0.50;0.00
62778;PMS7003;48821;48.796;2.396;2022-09-28T08:46:30;1.25;1.00;1.00
62778;PMS7003;48821;48.796;2.396;2022-09-28T08:47:52;3.00;1.00;0.75
62778;PMS7003;48821;48.796;2.396;2022-09-28T08:49:30;1.00;0.00;0.00
62778;PMS7003;48821;48.796;2.396;2022-09-28T08:50:59;1.00;1.00;1.00
62778;PMS7003;48821;48.796;2.396;2022-09-28T08:52:19;0.50;0.50;0.00
62778;PMS7003;48821;48.796;2.396;2022-09-28T08:53:37;0.25;0.00;0.00
62778;PMS7003;48821;48.796;2.396;2022-09-28T08:55:08;1.00;1.00;0.00
62778;PMS7003;48821;48.796;2.396;2022-09-28T08:57:45;4.00;1.00;1.00
62778;PMS7003;48821;48.796;2.396;2022-09-28T08:59:02;2.00;1.00;0.25
62778;PMS7003;48821;48.796;2.396;2022-09-28T09:00:21;1.00;1.00;1.00
62778;PMS7003;48821;48.796;2.396;2022-09-28T09:01:54;0.00;0.00;0.00
62778;PMS7003;48821;48.796;2.396;2022-09-28T09:03:13;0.75;0.75;0.00
62778;PMS7003;48821;48.796;2.396;2022-09-28T09:04:26;0.25;0.25;0.25
62778;PMS7003;48821;48.796;2.396;2022-09-28T09:06:23;0.00;0.00;0.00
62778;PMS7003;48821;48.796;2.396;2022-09-28T09:07:36;2.00;1.00;0.25
62778;PMS7003;48821;48.796;2.396;2022-09-28T09:08:57;1.00;1.00;1.00
62778;PMS7003;48821;48.796;2.396;2022-09-28T09:11:59;0.00;0.00;0.00
62778;PMS7003;48821;48.796;2.396;2022-09-28T09:22:16;0.00;0.00;0.00
62778;PMS7003;48821;48.796;2.396;2022-09-28T09:23:34;1.00;1.00;1.00
62778;PMS7003;48821;48.796;2.396;2022-09-28T09:24:48;1.00;1.00;1.00
62778;PMS7003;48821;48.796;2.396;2022-09-28T09:30:37;0.00;0.00;0.00
62778;PMS7003;48821;48.796;2.396;2022-09-28T09:42:28;1.00;1.00;1.00
62778;PMS7003;48821;48.796;2.396;2022-09-28T09:43:57;3.50;1.75;1.00
62778;PMS7003;48821;48.796;2.396;2022-09-28T09:48:19;1.50;1.50;1.00
62778;PMS7003;48821;48.796;2.396;2022-09-28T09:49:41;1.00;1.00;1.00
62778;PMS7003;48821;48.796;2.396;2022-09-28T09:50:58;0.00;0.00;0.00
62778;PMS7003;48821;48.796;2.396;2022-09-28T09:52:23;3.25;0.25;0.25
62778;PMS7003;48821;48.796;2.396;2022-09-28T09:53:46;1.25;0.00;0.00
62778;PMS7003;48821;48.796;2.396;2022-09-28T09:55:03;1.00;1.00;0.25
62778;PMS7003;48821;48.796;2.396;2022-09-28T09:58:03;1.00;1.00;1.00
62778;PMS7003;48821;48.796;2.396;2022-09-28T09:59:20;1.00;1.00;1.00
62778;PMS7003;48821;48.796;2.396;2022-09-28T10:00:39;2.50;1.25;1.00
62778;PMS7003;48821;48.796;2.396;2022-09-28T10:01:53;1.25;1.00;1.00
62778;PMS7003;48821;48.796;2.396;2022-09-28T10:03:04;2.50;1.00;1.00
62778;PMS7003;48821;48.796;2.396;2022-09-28T10:06:11;2.00;1.00;1.00
62778;PMS7003;48821;48.796;2.396;2022-09-28T10:09:05;5.75;4.00;3.00
62778;PMS7003;48821;48.796;2.396;2022-09-28T10:10:29;2.75;2.00;1.25
62778;PMS7003;48821;48.796;2.396;2022-09-28T10:11:48;2.75;1.00;1.00
62778;PMS7003;48821;48.796;2.396;2022-09-28T10:12:59;2.25;1.75;1.00
62778;PMS7003;48821;48.796;2.396;2022-09-28T10:14:16;0.75;0.75;0.75
62778;PMS7003;48821;48.796;2.396;2022-09-28T10:15:31;1.75;1.00;0.75
62778;PMS7003;48821;48.796;2.396;2022-09-28T10:16:44;1.75;1.00;0.50
62778;PMS7003;48821;48.796;2.396;2022-09-28T10:17:58;1.50;1.00;1.00
62778;PMS7003;48821;48.796;2.396;2022-09-28T10:19:12;1.75;0.75;0.75
62778;PMS7003;48821;48.796;2.396;2022-09-28T10:20:24;2.00;1.00;1.00
62778;PMS7003;48821;48.796;2.396;2022-09-28T10:21:38;1.00;1.00;1.00
62778;PMS7003;48821;48.796;2.396;2022-09-28T10:22:50;1.00;1.00;1.00
62778;PMS7003;48821;48.796;2.396;2022-09-28T10:24:04;1.50;1.50;1.50
62778;PMS7003;48821;48.796;2.396;2022-09-28T10:25:17;2.00;1.75;1.50
62778;PMS7003;48821;48.796;2.396;2022-09-28T10:26:32;2.00;2.00;1.75
62778;PMS7003;48821;48.796;2.396;2022-09-28T10:27:46;2.25;1.00;1.00
62778;PMS7003;48821;48.796;2.396;2022-09-28T10:29:02;2.00;2.00;2.00
62778;PMS7003;48821;48.796;2.396;2022-09-28T10:30:16;1.75;1.00;1.00
62778;PMS7003;48821;48.796;2.396;2022-09-28T10:31:43;1.00;1.00;0.75
62778;PMS7003;48821;48.796;2.396;2022-09-28T10:32:57;3.00;1.00;1.00
62778;PMS7003;48821;48.796;2.396;2022-09-28T10:34:10;0.75;0.75;0.25
62778;PMS7003;48821;48.796;2.396;2022-09-28T10:35:24;2.00;1.00;1.00
62778;PMS7003;48821;48.796;2.396;2022-09-28T10:36:44;4.00;1.00;1.00
62778;PMS7003;48821;48.796;2.396;2022-09-28T10:37:59;1.75;1.50;1.00
62778;PMS7003;48821;48.796;2.396;2022-09-28T10:39:26;2.00;2.00;1.75
62778;PMS7003;48821;48.796;2.396;2022-09-28T10:40:46;0.50;0.50;0.25
62778;PMS7003;48821;48.796;2.396;2022-09-28T10:41:59;1.00;1.00;1.00
62778;PMS7003;48821;48.796;2.396;2022-09-28T10:43:22;1.00;0.50;0.25
62778;PMS7003;48821;48.796;2.396;2022-09-28T10:45:59;1.25;1.25;1.00
62778;PMS7003;48821;48.796;2.396;2022-09-28T10:47:15;1.00;0.50;0.50
62778;PMS7003;48821;48.796;2.396;2022-09-28T10:48:29;2.00;2.00;1.00
62778;PMS7003;48821;48.796;2.396;2022-09-28T10:50:02;0.25;0.25;0.00
62778;PMS7003;48821;48.796;2.396;2022-09-28T10:52:52;1.50;1.00;1.00
62778;PMS7003;48821;48.796;2.396;2022-09-28T10:54:03;1.50;1.50;1.00
62778;PMS7003;48821;48.796;2.396;2022-09-28T10:56:34;1.00;1.00;1.00
62778;PMS7003;48821;48.796;2.396;2022-09-28T10:57:46;1.00;1.00;1.00
62778;PMS7003;48821;48.796;2.396;2022-09-28T10:58:59;3.00;2.25;1.50
62778;PMS7003;48821;48.796;2.396;2022-09-28T11:00:28;1.00;1.00;1.00
62778;PMS7003;48821;48.796;2.396;2022-09-28T11:02:01;4.50;2.00;1.50
62778;PMS7003;48821;48.796;2.396;2022-09-28T11:03:22;3.00;2.00;2.00
62778;PMS7003;48821;48.796;2.396;2022-09-28T11:04:37;1.00;1.00;1.00
62778;PMS7003;48821;48.796;2.396;2022-09-28T11:05:59;2.75;1.25;1.00
62778;PMS7003;48821;48.796;2.396;2022-09-28T11:07:16;2.00;2.00;1.00
62778;PMS7003;48821;48.796;2.396;2022-09-28T11:08:36;1.00;1.00;0.00
62778;PMS7003;48821;48.796;2.396;2022-09-28T11:09:51;2.50;0.25;0.25
62778;PMS7003;48821;48.796;2.396;2022-09-28T11:11:10;1.75;1.00;1.00
62778;PMS7003;48821;48.796;2.396;2022-09-28T11:12:24;1.00;1.00;1.00
62778;PMS7003;48821;48.796;2.396;2022-09-28T11:14:00;1.75;0.75;0.75
62778;PMS7003;48821;48.796;2.396;2022-09-28T11:15:19;2.50;2.00;1.00
62778;PMS7003;48821;48.796;2.396;2022-09-28T11:16:37;3.75;1.75;1.00
62778;PMS7003;48821;48.796;2.396;2022-09-28T11:17:48;3.00;1.00;1.00
62778;PMS7003;48821;48.796;2.396;2022-09-28T11:20:35;1.25;1.00;1.00
62778;PMS7003;48821;48.796;2.396;2022-09-28T11:21:45;1.25;0.00;0.00
62778;PMS7003;48821;48.796;2.396;2022-09-28T11:22:56;3.00;1.25;1.00
62778;PMS7003;48821;48.796;2.396;2022-09-28T11:25:30;1.00;1.00;1.00
62778;PMS7003;48821;48.796;2.396;2022-09-28T11:26:41;1.00;1.00;0.75
62778;PMS7003;48821;48.796;2.396;2022-09-28T11:27:56;3.50;2.00;2.00
62778;PMS7003;48821;48.796;2.396;2022-09-28T11:31:45;2.50;2.50;2.00
62778;PMS7003;48821;48.796;2.396;2022-09-28T11:32:59;3.00;1.00;1.00
62778;PMS7003;48821;48.796;2.396;2022-09-28T11:34:19;2.00;1.00;1.00
62778;PMS7003;48821;48.796;2.396;2022-09-28T11:35:44;6.00;4.00;3.00
62778;PMS7003;48821;48.796;2.396;2022-09-28T11:37:04;1.50;1.50;1.00
62778;PMS7003;48821;48.796;2.396;2022-09-28T11:40:04;1.00;1.00;1.00
62778;PMS7003;48821;48.796;2.396;2022-09-28T11:45:39;3.00;3.00;2.00
62778;PMS7003;48821;48.796;2.396;2022-09-28T11:49:00;2.00;2.00;2.00
62778;PMS7003;48821;48.796;2.396;2022-09-28T11:51:54;4.75;2.75;2.75
62778;PMS7003;48821;48.796;2.396;2022-09-28T11:53:20;1.00;1.00;1.00
62778;PMS7003;48821;48.796;2.396;2022-09-28T11:54:39;3.75;1.00;0.75
62778;PMS7003;48821;48.796;2.396;2022-09-28T11:57:26;4.00;2.00;1.50
62778;PMS7003;48821;48.796;2.396;2022-09-28T12:01:09;2.00;2.00;2.00
62778;PMS7003;48821;48.796;2.396;2022-09-28T12:02:35;2.00;2.00;1.25
62778;PMS7003;48821;48.796;2.396;2022-09-28T12:03:59;2.00;2.00;1.00
62778;PMS7003;48821;48.796;2.396;2022-09-28T12:05:23;1.50;0.25;0.00
62778;PMS7003;48821;48.796;2.396;2022-09-28T12:06:39;0.50;0.50;0.00
62778;PMS7003;48821;48.796;2.396;2022-09-28T12:08:01;2.00;1.25;1.00
62778;PMS7003;48821;48.796;2.396;2022-09-28T12:09:29;2.75;2.50;2.00
62778;PMS7003;48821;48.796;2.396;2022-09-28T12:10:52;10.25;6.75;4.00
62778;PMS7003;48821;48.796;2.396;2022-09-28T12:12:37;6.00;2.00;2.00
62778;PMS7003;48821;48.796;2.396;2022-09-28T12:13:54;2.25;1.00;1.00
62778;PMS7003;48821;48.796;2.396;2022-09-28T12:15:20;1.00;1.00;1.00
62778;PMS7003;48821;48.796;2.396;2022-09-28T12:16:36;3.25;0.50;0.50
62778;PMS7003;48821;48.796;2.396;2022-09-28T12:18:01;3.00;1.00;0.25
62778;PMS7003;48821;48.796;2.396;2022-09-28T12:19:20;4.50;1.50;1.00
62778;PMS7003;48821;48.796;2.396;2022-09-28T12:20:40;0.00;0.00;0.00
62778;PMS7003;48821;48.796;2.396;2022-09-28T12:21:57;2.00;1.00;1.00
62778;PMS7003;48821;48.796;2.396;2022-09-28T12:23:23;8.50;6.75;5.00
62778;PMS7003;48821;48.796;2.396;2022-09-28T12:24:41;1.00;1.00;1.00
62778;PMS7003;48821;48.796;2.396;2022-09-28T12:25:56;1.00;1.00;0.25
62778;PMS7003;48821;48.796;2.396;2022-09-28T12:27:56;1.00;1.00;1.00
62778;PMS7003;48821;48.796;2.396;2022-09-28T12:28:47;4.00;2.25;2.00
62778;PMS7003;48821;48.796;2.396;2022-09-28T12:30:13;3.00;2.00;2.00
62778;PMS7003;48821;48.796;2.396;2022-09-28T12:31:36;2.00;1.50;1.00
62778;PMS7003;48821;48.796;2.396;2022-09-28T12:34:13;1.00;1.00;1.00
62778;PMS7003;48821;48.796;2.396;2022-09-28T12:36:59;1.00;1.00;1.00
62778;PMS7003;48821;48.796;2.396;2022-09-28T12:43:27;4.00;2.00;1.00
62778;PMS7003;48821;48.796;2.396;2022-09-28T12:48:29;2.50;2.00;1.75
62778;PMS7003;48821;48.796;2.396;2022-09-28T12:50:06;2.00;1.00;0.50
62778;PMS7003;48821;48.796;2.396;2022-09-28T12:51:41;0.50;0.50;0.25
62778;PMS7003;48821;48.796;2.396;2022-09-28T12:54:16;0.25;0.25;0.00
62778;PMS7003;48821;48.796;2.396;2022-09-28T13:04:43;7.50;7.50;6.00
62778;PMS7003;48821;48.796;2.396;2022-09-28T13:07:44;1.50;1.25;1.25
62778;PMS7003;48821;48.796;2.396;2022-09-28T13:16:43;1.25;1.25;1.00
62778;PMS7003;48821;48.796;2.396;2022-09-28T13:18:04;5.75;3.00;2.25
62778;PMS7003;48821;48.796;2.396;2022-09-28T13:19:43;3.00;1.00;1.00
62778;PMS7003;48821;48.796;2.396;2022-09-28T13:23:47;2.00;2.00;2.00
62778;PMS7003;48821;48.796;2.396;2022-09-28T13:25:02;4.00;2.75;2.00
62778;PMS7003;48821;48.796;2.396;2022-09-28T13:27:39;7.00;5.00;4.00
62778;PMS7003;48821;48.796;2.396;2022-09-28T13:29:02;8.50;7.00;5.00
62778;PMS7003;48821;48.796;2.396;2022-09-28T13:30:19;12.75;6.00;5.00
62778;PMS7003;48821;48.796;2.396;2022-09-28T13:31:30;2.50;2.25;2.00
62778;PMS7003;48821;48.796;2.396;2022-09-28T13:32:42;6.00;5.75;4.50
62778;PMS7003;48821;48.796;2.396;2022-09-28T13:33:55;5.50;4.25;3.50
62778;PMS7003;48821;48.796;2.396;2022-09-28T13:35:16;4.75;4.25;3.75
62778;PMS7003;48821;48.796;2.396;2022-09-28T13:37:39;8.00;6.00;4.25
62778;PMS7003;48821;48.796;2.396;2022-09-28T13:38:50;5.50;4.00;3.25
62778;PMS7003;48821;48.796;2.396;2022-09-28T13:40:03;3.00;1.50;1.00
62778;PMS7003;48821;48.796;2.396;2022-09-28T13:41:15;2.25;2.00;1.50
62778;PMS7003;48821;48.796;2.396;2022-09-28T13:46:57;1.00;1.00;1.00
62778;PMS7003;48821;48.796;2.396;2022-09-28T13:48:19;0.50;0.25;0.00
62778;PMS7003;48821;48.796;2.396;2022-09-28T13:51:30;1.50;1.00;1.00
62778;PMS7003;48821;48.796;2.396;2022-09-28T13:57:57;3.00;2.25;1.75
62778;PMS7003;48821;48.796;2.396;2022-09-28T13:59:26;2.00;2.00;2.00
62778;PMS7003;48821;48.796;2.396;2022-09-28T14:06:32;1.00;1.00;1.00
62778;PMS7003;48821;48.796;2.396;2022-09-28T14:12:01;0.75;0.50;0.50
62778;PMS7003;48821;48.796;2.396;2022-09-28T14:13:13;2.25;0.00;0.00
62778;PMS7003;48821;48.796;2.396;2022-09-28T14:14:52;3.00;0.75;0.00
62778;PMS7003;48821;48.796;2.396;2022-09-28T14:20:22;0.00;0.00;0.00
62778;PMS7003;48821;48.796;2.396;2022-09-28T14:23:14;2.25;1.25;1.00
62778;PMS7003;48821;48.796;2.396;2022-09-28T14:28:41;2.00;1.00;0.25
62778;PMS7003;48821;48.796;2.396;2022-09-28T14:30:05;2.00;0.00;0.00
62778;PMS7003;48821;48.796;2.396;2022-09-28T14:31:39;1.00;1.00;1.00
62778;PMS7003;48821;48.796;2.396;2022-09-28T14:32:56;2.00;0.00;0.00
62778;PMS7003;48821;48.796;2.396;2022-09-28T14:34:21;1.50;0.50;0.00
62778;PMS7003;48821;48.796;2.396;2022-09-28T14:35:46;3.00;0.00;0.00
62778;PMS7003;48821;48.796;2.396;2022-09-28T14:37:17;1.00;1.00;1.00
62778;PMS7003;48821;48.796;2.396;2022-09-28T14:38:50;1.00;0.00;0.00
62778;PMS7003;48821;48.796;2.396;2022-09-28T14:40:26;1.25;1.00;1.00
62778;PMS7003;48821;48.796;2.396;2022-09-28T14:42:07;1.00;1.00;1.00
62778;PMS7003;48821;48.796;2.396;2022-09-28T14:47:35;3.00;0.75;0.75
62778;PMS7003;48821;48.796;2.396;2022-09-28T14:50:26;2.00;0.75;0.75
62778;PMS7003;48821;48.796;2.396;2022-09-28T14:51:42;3.50;1.00;1.00
62778;PMS7003;48821;48.796;2.396;2022-09-28T14:52:54;2.00;0.50;0.00
62778;PMS7003;48821;48.796;2.396;2022-09-28T14:54:17;0.50;0.50;0.25
62778;PMS7003;48821;48.796;2.396;2022-09-28T14:55:31;0.50;0.00;0.00
62778;PMS7003;48821;48.796;2.396;2022-09-28T14:58:07;2.00;2.00;2.00
62778;PMS7003;48821;48.796;2.396;2022-09-28T14:59:29;3.00;2.00;2.00
62778;PMS7003;48821;48.796;2.396;2022-09-28T15:00:45;1.00;1.00;0.00
62778;PMS7003;48821;48.796;2.396;2022-09-28T15:02:00;1.75;1.00;1.00
62778;PMS7003;48821;48.796;2.396;2022-09-28T15:03:17;0.00;0.00;0.00
62778;PMS7003;48821;48.796;2.396;2022-09-28T15:04:30;3.00;3.00;2.25
62778;PMS7003;48821;48.796;2.396;2022-09-28T15:05:45;0.00;0.00;0.00
62778;PMS7003;48821;48.796;2.396;2022-09-28T15:06:56;0.75;0.75;0.00
62778;PMS7003;48821;48.796;2.396;2022-09-28T15:08:07;1.00;1.00;1.00
62778;PMS7003;48821;48.796;2.396;2022-09-28T15:09:39;1.50;1.00;1.00
62778;PMS7003;48821;48.796;2.396;2022-09-28T15:10:50;2.25;1.00;0.50
62778;PMS7003;48821;48.796;2.396;2022-09-28T15:12:06;0.00;0.00;0.00
62778;PMS7003;48821;48.796;2.396;2022-09-28T15:13:25;0.00;0.00;0.00
62778;PMS7003;48821;48.796;2.396;2022-09-28T15:14:42;1.00;0.25;0.00
62778;PMS7003;48821;48.796;2.396;2022-09-28T15:16:03;0.50;0.00;0.00
62778;PMS7003;48821;48.796;2.396;2022-09-28T15:17:20;1.00;1.00;1.00
62778;PMS7003;48821;48.796;2.396;2022-09-28T15:20:15;0.25;0.25;0.00
62778;PMS7003;48821;48.796;2.396;2022-09-28T15:21:42;3.00;1.00;1.00
62778;PMS7003;48821;48.796;2.396;2022-09-28T15:22:57;2.50;1.00;1.00
62778;PMS7003;48821;48.796;2.396;2022-09-28T15:25:37;0.00;0.00;0.00
62778;PMS7003;48821;48.796;2.396;2022-09-28T15:26:48;2.00;1.00;1.00
62778;PMS7003;48821;48.796;2.396;2022-09-28T15:28:00;3.00;2.75;2.00
62778;PMS7003;48821;48.796;2.396;2022-09-28T15:29:22;3.00;3.00;2.00
62778;PMS7003;48821;48.796;2.396;2022-09-28T15:30:34;2.75;1.25;1.00
62778;PMS7003;48821;48.796;2.396;2022-09-28T15:31:45;1.00;1.00;1.00
62778;PMS7003;48821;48.796;2.396;2022-09-28T15:32:56;2.00;2.00;2.00
62778;PMS7003;48821;48.796;2.396;2022-09-28T15:34:31;1.75;1.50;1.00
62778;PMS7003;48821;48.796;2.396;2022-09-28T15:36:04;3.00;2.25;2.00
62778;PMS7003;48821;48.796;2.396;2022-09-28T15:37:17;2.00;2.00;1.50
62778;PMS7003;48821;48.796;2.396;2022-09-28T15:38:41;2.25;1.00;1.00
62778;PMS7003;48821;48.796;2.396;2022-09-28T15:39:52;1.50;1.50;1.00